Time;durP1;ratioP1;P1;durP2;ratioP2;P2;SDS_P1;SDS_P2;PMS_P1;PMS_P2;Temp;Humidity;BMP_temperature;BMP_pressure;BME280_temperature;BME280_humidity;BME280_pressure;Samples;Min_cycle;Max_cycle;Signal;HPM_P1;HPM_P2
2023/02/16 00:01:32;;;;;;;17.10;15.20;;;;;;;2.93;87.10;101421.63;5032592;28;20207;-76
2023/02/16 00:03:59;;;;;;;18.70;14.73;;;;;;;3.00;86.17;101408.88;5032824;28;20285;-77
2023/02/16 00:06:28;;;;;;;17.93;15.80;;;;;;;3.04;85.77;101406.44;5032571;28;20203;-77
2023/02/16 00:08:57;;;;;;;16.00;14.33;;;;;;;3.03;85.89;101419.28;5033080;28;20207;-77
2023/02/16 00:14:14;;;;;;;18.83;16.43;;;;;;;3.22;84.86;101439.59;5032256;28;20234;-77
2023/02/16 00:16:40;;;;;;;19.40;14.87;;;;;;;3.30;84.18;101463.88;5033001;28;20212;-77
2023/02/16 00:19:18;;;;;;;16.13;14.30;;;;;;;3.32;84.06;101479.41;5032728;28;20231;-77
2023/02/16 00:21:45;;;;;;;17.60;15.53;;;;;;;3.31;83.71;101495.72;5032838;28;20255;-77
2023/02/16 00:24:13;;;;;;;20.10;15.10;;;;;;;3.28;84.05;101506.84;5030409;28;20226;-77
2023/02/16 00:26:40;;;;;;;18.40;15.07;;;;;;;3.34;84.02;101495.81;5032680;28;20211;-77
2023/02/16 00:29:09;;;;;;;20.53;14.83;;;;;;;3.30;83.67;101504.31;5032679;28;20273;-77
2023/02/16 00:31:35;;;;;;;16.37;14.67;;;;;;;3.37;83.61;101499.38;5032839;28;20208;-77
2023/02/16 00:34:15;;;;;;;17.93;15.47;;;;;;;3.45;83.45;101511.59;5032644;28;20742;-77
2023/02/16 00:36:42;;;;;;;17.33;15.27;;;;;;;3.47;83.25;101521.13;5032830;28;20235;-77
2023/02/16 00:39:08;;;;;;;16.90;15.10;;;;;;;3.50;82.78;101526.38;5032962;28;20224;-77
2023/02/16 00:41:51;;;;;;;17.90;16.00;;;;;;;3.44;82.85;101543.41;5032969;28;20210;-77
2023/02/16 00:44:21;;;;;;;14.77;13.37;;;;;;;3.47;83.09;101527.97;5032930;28;20230;-76
2023/02/16 00:46:48;;;;;;;15.00;13.50;;;;;;;3.52;82.83;101526.41;5032874;28;20212;-77
2023/02/16 00:49:15;;;;;;;15.33;13.77;;;;;;;3.50;83.16;101522.91;5032849;28;20708;-77
2023/02/16 00:51:41;;;;;;;17.93;16.13;;;;;;;3.53;83.46;101529.06;5032713;28;20678;-77
2023/02/16 00:54:07;;;;;;;21.87;17.33;;;;;;;3.49;83.15;101539.22;5030077;28;20766;-77
2023/02/16 00:56:36;;;;;;;16.70;14.97;;;;;;;3.43;83.25;101536.47;5032694;28;20209;-77
2023/02/16 00:59:05;;;;;;;17.00;15.30;;;;;;;3.23;84.06;101528.19;5032548;28;20230;-77
2023/02/16 01:01:35;;;;;;;16.60;14.93;;;;;;;3.04;85.12;101496.69;5032545;28;20298;-77
2023/02/16 01:04:05;;;;;;;19.77;16.67;;;;;;;3.00;86.68;101445.88;5032341;28;20322;-77
2023/02/16 01:12:13;;;;;;;20.97;18.23;;;;;;;3.11;87.79;101379.97;5032051;28;20333;-77
2023/02/16 01:14:39;;;;;;;23.30;18.60;;;;;;;3.20;87.20;101375.88;5062978;22;20238;-82
2023/02/16 01:17:06;;;;;;;23.27;17.73;;;;;;;3.14;87.89;101359.41;5052739;28;20209;-82
2023/02/16 01:19:32;;;;;;;29.23;18.70;;;;;;;3.21;87.79;101337.25;5056225;28;20223;-82
2023/02/16 01:21:58;;;;;;;24.63;19.80;;;;;;;3.26;87.50;101322.72;5055988;28;20658;-80
2023/02/16 01:24:25;;;;;;;29.53;20.77;;;;;;;3.38;86.97;101329.91;5055818;28;20235;-81
2023/02/16 01:26:51;;;;;;;22.33;18.40;;;;;;;3.38;87.24;101341.09;5056166;28;20205;-82
2023/02/16 01:29:21;;;;;;;23.37;19.17;;;;;;;3.41;86.79;101330.00;5056415;28;20336;-80
2023/02/16 01:31:47;;;;;;;23.47;18.97;;;;;;;3.50;86.87;101334.50;5055845;28;20264;-81
2023/02/16 01:34:14;;;;;;;24.37;18.63;;;;;;;3.46;86.45;101341.28;5055662;28;20238;-81
2023/02/16 01:36:43;;;;;;;25.60;19.73;;;;;;;3.45;86.45;101342.13;5055704;28;20615;-81
2023/02/16 01:39:12;;;;;;;24.80;19.27;;;;;;;3.51;86.51;101344.88;5056160;28;20726;-81
2023/02/16 01:41:51;;;;;;;30.87;21.53;;;;;;;3.66;86.14;101346.06;5056076;28;20207;-80
2023/02/16 01:44:23;;;;;;;30.03;20.73;;;;;;;3.70;86.22;101355.63;5055894;28;20226;-80
2023/02/16 01:46:54;;;;;;;29.60;20.57;;;;;;;3.78;85.45;101372.16;5055927;28;20210;-81
2023/02/16 01:49:22;;;;;;;29.03;20.37;;;;;;;3.88;85.28;101381.88;5055959;28;20236;-81
2023/02/16 01:51:55;;;;;;;25.47;20.27;;;;;;;3.83;85.09;101401.56;5055660;28;20670;-83
2023/02/16 01:54:32;;;;;;;32.53;20.23;;;;;;;3.93;84.73;101410.41;5039538;28;20284;-82
2023/02/16 01:57:03;;;;;;;26.43;19.23;;;;;;;3.70;85.11;101421.03;5035648;28;20625;-83
2023/02/16 01:59:40;;;;;;;25.30;20.70;;;;;;;3.71;85.78;101399.56;5035500;28;20231;-82
2023/02/16 02:02:14;;;;;;;25.20;19.03;;;;;;;3.68;85.67;101396.03;5035658;28;20263;-83
2023/02/16 02:07:37;;;;;;;28.73;20.70;;;;;;;3.61;86.44;101376.03;5035893;28;20707;-81
2023/02/16 02:10:10;;;;;;;28.80;20.60;;;;;;;3.59;86.59;101368.28;5035903;28;20202;-79
2023/02/16 02:12:45;;;;;;;28.73;20.93;;;;;;;3.58;87.07;101358.78;5035921;28;20208;-81
2023/02/16 02:15:17;;;;;;;30.13;21.40;;;;;;;3.71;87.49;101340.19;5035828;28;20235;-80
2023/02/16 02:17:44;;;;;;;37.17;22.03;;;;;;;3.72;87.02;101346.22;5035983;28;20679;-81
2023/02/16 02:20:18;;;;;;;30.57;21.33;;;;;;;3.71;86.70;101352.22;5035593;28;20276;-81
2023/02/16 02:23:31;;;;;;;31.00;21.93;;;;;;;3.81;86.33;101354.19;5034898;28;20214;-83
2023/02/16 02:26:31;;;;;;;25.70;19.30;;;;;;;3.78;86.10;101342.03;5035693;28;20206;-80
2023/02/16 02:29:11;;;;;;;34.13;22.80;;;;;;;3.83;86.40;101336.16;5034524;28;20215;-81
2023/02/16 02:31:49;;;;;;;39.80;23.33;;;;;;;3.81;86.06;101333.53;5035336;28;20206;-81
2023/02/16 02:34:28;;;;;;;38.37;23.33;;;;;;;3.91;86.23;101335.47;5035400;28;20234;-80
2023/02/16 02:37:05;;;;;;;38.27;23.77;;;;;;;3.86;86.06;101347.41;5035415;28;20266;-81
2023/02/16 02:39:37;;;;;;;34.93;22.90;;;;;;;3.85;86.20;101343.09;5035270;28;20226;-81
2023/02/16 02:42:10;;;;;;;32.77;22.70;;;;;;;3.87;86.16;101346.56;5035491;28;20208;-81
2023/02/16 02:44:42;;;;;;;31.23;23.13;;;;;;;3.86;86.03;101337.06;5035668;28;20239;-81
2023/02/16 02:47:08;;;;;;;36.47;23.33;;;;;;;3.86;86.04;101344.81;5035411;28;20207;-81
2023/02/16 02:49:35;;;;;;;29.63;22.53;;;;;;;3.81;85.99;101341.28;5035104;28;20260;-81
2023/02/16 02:52:02;;;;;;;31.87;22.33;;;;;;;3.78;86.72;101330.84;5034891;28;20211;-81
2023/02/16 03:02:57;;;;;;;34.37;23.57;;;;;;;3.85;87.13;101296.59;5033783;28;20217;-81
2023/02/16 03:05:27;;;;;;;37.47;24.33;;;;;;;3.90;87.16;101291.53;5034738;28;20233;-80
2023/02/16 03:08:05;;;;;;;38.23;24.10;;;;;;;3.98;87.07;101284.81;5034956;28;20203;-81
2023/02/16 03:13:23;;;;;;;36.47;25.43;;;;;;;4.10;86.63;101317.78;5034451;28;20206;-82
2023/02/16 03:15:54;;;;;;;36.67;24.00;;;;;;;4.26;86.07;101324.16;5034581;28;20234;-79
2023/02/16 03:29:31;;;;;;;39.50;24.03;;;;;;;4.31;84.85;101392.34;5034234;28;20259;-81
2023/02/16 03:31:58;;;;;;;37.30;24.00;;;;;;;4.33;84.74;101393.25;5034016;28;20261;-81
2023/02/16 03:34:25;;;;;;;43.37;25.27;;;;;;;4.26;85.20;101399.09;5034451;28;20279;-81
2023/02/16 03:36:57;;;;;;;37.47;24.73;;;;;;;4.24;85.00;101399.09;5034287;28;20211;-81
2023/02/16 03:39:24;;;;;;;32.67;24.13;;;;;;;4.27;85.18;101400.88;5033899;28;20222;-81
2023/02/16 03:41:53;;;;;;;33.00;23.40;;;;;;;4.24;84.54;101401.69;5033820;28;20211;-80
2023/02/16 03:44:19;;;;;;;37.23;25.30;;;;;;;4.25;84.65;101411.16;5033996;28;20770;-81
2023/02/16 03:46:48;;;;;;;38.40;25.10;;;;;;;4.28;84.57;101418.09;5034527;28;20207;-81
2023/02/16 03:49:15;;;;;;;35.40;24.53;;;;;;;4.36;84.57;101424.31;5034142;28;20204;-81
2023/02/16 03:51:41;;;;;;;37.93;24.50;;;;;;;4.29;84.75;101420.72;5033958;28;20208;-80
2023/02/16 03:54:07;;;;;;;33.13;23.90;;;;;;;4.33;84.65;101422.53;5033715;28;20276;-80
2023/02/16 03:56:34;;;;;;;39.13;25.53;;;;;;;4.25;83.95;101436.13;5033122;28;20269;-81
2023/02/16 03:59:00;;;;;;;33.80;25.03;;;;;;;4.25;84.23;101439.59;5033008;28;20229;-81
2023/02/16 04:01:26;;;;;;;34.97;24.17;;;;;;;4.28;83.40;101459.44;5033101;28;20214;-80
2023/02/16 04:03:54;;;;;;;36.47;24.97;;;;;;;4.13;83.72;101467.72;5032490;28;20230;-80
2023/02/16 04:06:20;;;;;;;35.93;24.67;;;;;;;4.18;83.58;101460.94;5032895;28;20264;-82
2023/02/16 04:08:47;;;;;;;39.40;25.20;;;;;;;4.07;83.79;101463.28;5032645;28;20256;-82
2023/02/16 04:13:57;;;;;;;39.63;25.33;;;;;;;3.89;83.99;101462.84;5032297;28;20611;-81
2023/02/16 04:16:23;;;;;;;33.67;24.33;;;;;;;3.90;83.75;101455.09;5032714;28;20738;-81
2023/02/16 04:18:50;;;;;;;36.00;25.30;;;;;;;3.88;83.65;101464.53;5032549;28;20230;-81
2023/02/16 04:21:17;;;;;;;35.43;24.40;;;;;;;3.80;84.23;101460.88;5032361;28;20213;-81
2023/02/16 04:23:44;;;;;;;39.60;24.50;;;;;;;3.65;84.14;101465.66;5032424;28;20269;-81
2023/02/16 04:26:10;;;;;;;36.63;23.50;;;;;;;3.57;84.82;101450.00;5032705;28;20274;-82
2023/02/16 04:28:36;;;;;;;37.43;24.47;;;;;;;3.52;84.87;101436.94;5032398;28;20209;-80
2023/02/16 04:31:03;;;;;;;39.40;23.23;;;;;;;3.47;85.01;101435.97;5032290;28;20242;-80
2023/02/16 04:33:29;;;;;;;33.20;23.30;;;;;;;3.35;84.96;101439.09;5032011;28;20212;-80
2023/02/16 04:35:55;;;;;;;32.77;22.57;;;;;;;3.16;85.25;101429.97;5032188;28;20775;-81
2023/02/16 04:38:24;;;;;;;38.17;24.53;;;;;;;3.25;85.57;101420.72;5032292;28;20204;-81
2023/02/16 04:40:51;;;;;;;31.43;23.27;;;;;;;3.09;85.01;101428.06;5032220;28;20202;-81
2023/02/16 04:43:17;;;;;;;31.13;22.83;;;;;;;3.18;85.62;101409.38;5032087;28;20206;-81
2023/02/16 04:45:43;;;;;;;32.70;22.73;;;;;;;2.82;86.41;101407.53;5032204;28;20231;-81
2023/02/16 04:48:10;;;;;;;38.60;24.13;;;;;;;2.66;88.36;101362.41;5032362;28;20210;-80
2023/02/16 04:50:36;;;;;;;42.53;25.30;;;;;;;2.48;90.31;101306.06;5031790;28;20204;-80
2023/02/16 04:53:03;;;;;;;41.10;24.77;;;;;;;2.34;90.96;101253.28;5030717;28;20625;-81
2023/02/16 04:55:30;;;;;;;46.53;27.33;;;;;;;2.30;92.99;101207.63;5032211;28;20650;-80
2023/02/16 04:57:57;;;;;;;38.70;25.80;;;;;;;2.53;93.44;101139.53;5032235;28;20353;-81
2023/02/16 05:00:23;;;;;;;47.03;26.70;;;;;;;2.64;93.59;101134.69;5032131;28;20780;-81
2023/02/16 05:02:50;;;;;;;40.50;25.37;;;;;;;2.69;92.65;101124.47;5031922;28;20262;-80
2023/02/16 05:05:16;;;;;;;44.47;25.83;;;;;;;2.79;92.68;101116.09;5032158;28;20276;-80
2023/02/16 05:07:42;;;;;;;40.40;26.07;;;;;;;2.81;92.06;101123.88;5032126;28;20743;-80
2023/02/16 05:10:09;;;;;;;43.00;25.27;;;;;;;2.85;91.83;101136.88;5032232;28;20553;-80
2023/02/16 05:15:21;;;;;;;44.00;25.63;;;;;;;3.05;91.50;101149.38;5031911;28;20723;-81
2023/02/16 05:17:48;;;;;;;37.97;25.07;;;;;;;3.13;90.68;101160.72;5032140;28;20202;-80
2023/02/16 05:20:14;;;;;;;36.53;25.17;;;;;;;3.25;90.59;101163.63;5031885;28;20235;-80
2023/02/16 05:22:42;;;;;;;41.43;25.00;;;;;;;3.34;89.95;101193.91;5032151;28;20237;-81
2023/02/16 05:25:08;;;;;;;40.07;24.27;;;;;;;3.40;89.25;101209.53;5031475;28;20271;-81
2023/02/16 05:27:35;;;;;;;40.47;24.83;;;;;;;3.46;88.47;101234.59;5031846;28;20209;-81
2023/02/16 05:30:03;;;;;;;38.03;24.53;;;;;;;3.47;88.19;101267.31;5031906;28;20218;-80
2023/02/16 05:32:29;;;;;;;40.83;25.60;;;;;;;3.49;87.65;101286.28;5031388;28;20201;-80
2023/02/16 05:34:55;;;;;;;44.87;24.63;;;;;;;3.26;87.37;101304.66;5031316;28;20227;-81
2023/02/16 05:37:22;;;;;;;40.30;24.43;;;;;;;3.11;88.31;101299.13;5031899;28;20658;-80
2023/02/16 05:39:48;;;;;;;37.53;24.13;;;;;;;3.13;88.67;101289.72;5031942;28;20222;-80
2023/02/16 05:42:14;;;;;;;35.03;23.63;;;;;;;3.18;88.68;101289.00;5031639;28;20212;-81
2023/02/16 05:44:41;;;;;;;37.27;24.47;;;;;;;3.01;88.12;101303.16;5031623;28;20846;-81
2023/02/16 05:47:08;;;;;;;37.47;24.33;;;;;;;2.98;88.51;101293.66;5031692;28;20214;-80
2023/02/16 05:49:35;;;;;;;39.93;24.83;;;;;;;2.81;88.72;101294.91;5031581;28;20258;-80
2023/02/16 05:52:01;;;;;;;36.93;24.80;;;;;;;2.83;88.80;101282.06;5031503;28;20214;-80
2023/02/16 05:54:27;;;;;;;37.03;23.27;;;;;;;2.88;88.70;101283.06;5031885;28;20223;-81
2023/02/16 05:56:54;;;;;;;38.83;24.40;;;;;;;2.82;88.23;101285.50;5031416;28;20206;-81
2023/02/16 05:59:20;;;;;;;40.27;24.07;;;;;;;2.69;89.46;101267.09;5031622;28;20232;-81
2023/02/16 06:01:47;;;;;;;39.10;25.00;;;;;;;2.68;89.61;101251.63;5031844;28;20253;-80
2023/02/16 06:04:14;;;;;;;35.00;22.37;;;;;;;2.57;89.12;101252.19;5033293;28;20746;-80
2023/02/16 06:06:41;;;;;;;38.33;22.87;;;;;;;2.65;90.34;101239.50;5035456;28;20202;-80
2023/02/16 06:09:08;;;;;;;30.73;21.93;;;;;;;2.67;89.94;101224.94;5035345;28;20634;-81
2023/02/16 06:11:38;;;;;;;34.93;22.73;;;;;;;2.62;90.19;101231.72;5035456;28;20740;-80
2023/02/16 06:14:06;;;;;;;34.13;23.07;;;;;;;2.66;90.28;101233.53;5035110;28;20238;-80
2023/02/16 06:16:34;;;;;;;32.50;22.27;;;;;;;2.71;90.20;101233.63;5035204;28;20215;-80
2023/02/16 06:19:01;;;;;;;29.17;20.93;;;;;;;2.63;89.83;101236.00;5034851;28;20680;-81
2023/02/16 06:21:29;;;;;;;33.50;22.07;;;;;;;2.37;90.28;101232.75;5033320;28;20207;-82
2023/02/16 06:23:56;;;;;;;37.80;23.20;;;;;;;2.38;90.77;101208.75;5026633;28;20270;-81
2023/02/16 06:26:22;;;;;;;35.27;22.53;;;;;;;2.39;91.75;101211.34;5028261;28;20735;-83
2023/02/16 06:28:49;;;;;;;34.87;22.23;;;;;;;2.48;92.03;101203.00;5022997;28;20267;-81
2023/02/16 06:31:15;;;;;;;38.87;24.20;;;;;;;2.67;91.24;101193.16;5024563;28;20614;-80
2023/02/16 06:33:42;;;;;;;35.93;22.97;;;;;;;2.56;91.34;101203.19;5025465;28;20247;-80
2023/02/16 06:36:09;;;;;;;31.10;22.97;;;;;;;2.61;91.08;101208.47;5025868;28;20627;-82
2023/02/16 06:38:36;;;;;;;30.27;20.73;;;;;;;2.52;90.75;101206.53;5024799;28;20200;-79
2023/02/16 06:41:03;;;;;;;31.57;22.77;;;;;;;2.67;90.91;101206.03;5024631;28;20946;-82
2023/02/16 06:43:29;;;;;;;31.67;20.57;;;;;;;2.63;90.63;101223.13;5022669;28;20256;-82
2023/02/16 06:45:56;;;;;;;34.07;22.20;;;;;;;2.71;90.33;101236.22;5025537;28;20266;-84
2023/02/16 06:48:22;;;;;;;31.70;21.03;;;;;;;2.80;90.03;101239.03;5026794;28;20751;-82
2023/02/16 06:50:48;;;;;;;30.20;21.80;;;;;;;2.84;89.35;101245.16;5022755;28;20196;-82
2023/02/16 06:53:15;;;;;;;31.13;22.30;;;;;;;2.88;89.15;101265.03;5027760;28;20212;-82
2023/02/16 06:55:42;;;;;;;36.37;22.67;;;;;;;2.88;89.01;101277.91;5026702;28;20277;-84
2023/02/16 06:58:09;;;;;;;25.10;20.07;;;;;;;2.85;88.98;101281.25;5026304;28;20208;-78
2023/02/16 07:00:35;;;;;;;36.87;23.07;;;;;;;2.87;88.44;101279.59;5026458;28;20222;-81
2023/02/16 07:03:02;;;;;;;31.23;20.40;;;;;;;2.87;88.51;101289.03;5026107;28;20208;-81
2023/02/16 07:05:28;;;;;;;29.50;20.47;;;;;;;2.94;88.89;101290.97;5024883;28;20226;-82
2023/02/16 07:07:55;;;;;;;31.03;21.67;;;;;;;2.93;88.43;101295.25;5025536;28;20204;-81
2023/02/16 07:10:21;;;;;;;30.00;20.57;;;;;;;2.81;88.57;101307.81;5027081;28;20197;-82
2023/02/16 07:12:49;;;;;;;26.70;19.83;;;;;;;2.72;89.04;101294.69;5025722;28;20266;-83
2023/02/16 07:15:15;;;;;;;35.83;21.57;;;;;;;2.80;89.16;101285.44;5068394;22;20239;-82
2023/02/16 07:17:42;;;;;;;34.27;20.83;;;;;;;2.91;88.27;101288.28;5026564;28;20255;-80
2023/02/16 07:20:11;;;;;;;30.80;20.60;;;;;;;2.98;88.19;101293.66;5023873;28;20223;-81
2023/02/16 07:22:37;;;;;;;31.23;20.73;;;;;;;2.95;88.53;101295.28;5024288;28;20202;-83
2023/02/16 07:25:04;;;;;;;26.60;19.77;;;;;;;3.00;88.65;101303.16;5027578;28;20231;-82
2023/02/16 07:27:30;;;;;;;34.70;21.47;;;;;;;3.01;87.99;101307.47;5023228;28;20210;-81
2023/02/16 07:29:58;;;;;;;31.30;20.87;;;;;;;3.09;87.74;101317.16;5022706;28;20254;-81
2023/02/16 07:32:24;;;;;;;23.23;19.70;;;;;;;3.23;86.77;101345.00;5026049;28;20254;-81
2023/02/16 07:34:51;;;;;;;24.13;19.57;;;;;;;3.35;86.08;101364.25;5025499;28;20771;-83
2023/02/16 07:37:17;;;;;;;30.83;20.93;;;;;;;3.50;84.96;101401.59;5024530;28;20271;-80
2023/02/16 07:39:43;;;;;;;25.80;19.30;;;;;;;3.56;84.05;101428.44;5024848;28;20223;-82
2023/02/16 07:42:09;;;;;;;32.33;20.83;;;;;;;3.58;84.11;101434.50;5024998;28;20211;-79
2023/02/16 07:44:36;;;;;;;28.57;20.03;;;;;;;3.54;85.38;101436.97;5025544;28;20196;-80
2023/02/16 07:47:03;;;;;;;28.97;20.03;;;;;;;3.56;85.87;101431.03;5018569;28;20208;-81
2023/02/16 07:49:30;;;;;;;28.70;18.87;;;;;;;3.54;86.18;101401.72;5016105;28;20265;-81
2023/02/16 07:51:56;;;;;;;26.90;18.97;;;;;;;3.64;85.57;101395.06;5017459;28;20257;-82
2023/02/16 07:54:22;;;;;;;29.20;19.83;;;;;;;3.73;84.96;101415.09;5028412;28;20203;-81
2023/02/16 07:56:49;;;;;;;29.90;20.50;;;;;;;3.82;84.16;101407.56;5036287;28;20210;-81
2023/02/16 07:59:16;;;;;;;21.87;17.73;;;;;;;3.89;84.23;101419.81;5035808;28;20207;-82
2023/02/16 08:01:42;;;;;;;27.17;19.00;;;;;;;4.03;84.05;101419.25;5035708;28;20225;-82
2023/02/16 08:04:10;;;;;;;27.67;18.63;;;;;;;4.28;84.46;101437.09;5034328;28;20278;-82
2023/02/16 08:06:36;;;;;;;36.00;20.00;;;;;;;4.54;85.61;101434.22;5035273;28;20289;-81
2023/02/16 08:09:03;;;;;;;22.00;18.57;;;;;;;4.66;85.00;101418.06;5034379;28;20262;-82
2023/02/16 08:11:29;;;;;;;24.00;19.00;;;;;;;4.86;82.29;101457.31;5034584;28;20198;-82
2023/02/16 08:13:58;;;;;;;22.00;19.03;;;;;;;4.96;81.87;101467.00;5034742;28;20683;-82
2023/02/16 08:16:26;;;;;;;28.53;21.60;;;;;;;5.00;81.97;101528.31;5035510;28;20317;-82
2023/02/16 08:18:56;;;;;;;22.73;19.60;;;;;;;5.03;82.36;101533.53;5033651;28;20233;-81
2023/02/16 08:21:25;;;;;;;24.70;19.07;;;;;;;5.09;81.84;101525.03;5033644;28;20727;-82
2023/02/16 08:23:55;;;;;;;21.20;18.17;;;;;;;4.98;79.50;101577.44;5032081;28;20207;-83
2023/02/16 08:26:23;;;;;;;23.27;18.00;;;;;;;5.22;84.21;101563.28;5027941;28;20247;-82
2023/02/16 08:28:50;;;;;;;24.20;18.27;;;;;;;5.05;77.91;101586.19;5035770;28;20222;-82
2023/02/16 08:31:18;;;;;;;19.37;17.00;;;;;;;5.04;78.12;101638.81;5036532;28;20257;-83
2023/02/16 08:33:46;;;;;;;28.47;18.87;;;;;;;5.18;80.17;101634.81;5036149;28;20210;-82
2023/02/16 08:36:20;;;;;;;24.73;18.93;;;;;;;5.14;79.36;101647.66;5031664;28;20218;-83
2023/02/16 08:38:49;;;;;;;19.87;17.27;;;;;;;5.19;78.72;101643.44;5032497;28;20221;-82
2023/02/16 08:41:16;;;;;;;19.77;17.00;;;;;;;5.11;77.69;101669.19;5034235;28;20603;-83
2023/02/16 08:43:42;;;;;;;23.17;17.67;;;;;;;5.08;76.48;101691.50;5034714;28;20253;-80
2023/02/16 08:46:09;;;;;;;22.50;18.07;;;;;;;5.02;75.81;101722.41;5034117;28;20227;-81
2023/02/16 08:48:36;;;;;;;20.63;17.33;;;;;;;5.05;75.90;101748.34;5037050;28;20260;-80
2023/02/16 08:51:05;;;;;;;20.63;17.20;;;;;;;5.07;76.58;101741.50;5037840;28;20203;-80
2023/02/16 08:53:32;;;;;;;21.00;18.30;;;;;;;5.08;76.34;101738.09;5036820;28;20568;-82
2023/02/16 08:56:02;;;;;;;21.57;17.97;;;;;;;5.20;76.95;101716.81;5036516;28;20219;-81
2023/02/16 08:58:29;;;;;;;23.23;18.40;;;;;;;5.33;77.54;101680.00;5037624;28;20211;-81
2023/02/16 09:00:55;;;;;;;25.87;18.33;;;;;;;5.43;77.13;101675.91;5036017;28;20847;-80
2023/02/16 09:03:22;;;;;;;21.73;17.63;;;;;;;5.49;76.37;101681.22;5035181;28;20206;-81
2023/02/16 09:05:50;;;;;;;27.03;19.10;;;;;;;5.44;75.07;101729.44;5036348;28;20288;-81
2023/02/16 09:08:17;;;;;;;20.93;17.83;;;;;;;5.53;75.98;101725.34;5037165;28;20209;-81
2023/02/16 09:10:43;;;;;;;25.43;18.80;;;;;;;5.71;79.48;101693.81;5036900;28;20299;-78
2023/02/16 09:13:13;;;;;;;20.30;17.23;;;;;;;5.73;76.18;101684.34;5036684;28;20205;-81
2023/02/16 09:15:40;;;;;;;20.60;17.47;;;;;;;5.70;74.12;101712.75;5036643;28;20325;-81
2023/02/16 09:18:07;;;;;;;22.53;18.43;;;;;;;5.85;77.61;101701.88;5019689;28;20207;-80
2023/02/16 09:20:37;;;;;;;21.03;17.27;;;;;;;6.06;77.53;101672.06;5016840;28;20431;-81
2023/02/16 09:23:04;;;;;;;19.30;17.33;;;;;;;5.98;73.42;101713.38;5024173;28;20199;-81
2023/02/16 09:25:30;;;;;;;21.37;18.33;;;;;;;6.05;72.20;101777.47;4340101;28;10000738;-80
2023/02/16 09:27:56;;;;;;;23.13;18.30;;;;;;;6.10;72.90;101806.06;5035489;28;20260;-81
2023/02/16 09:30:24;;;;;;;21.20;18.90;;;;;;;6.23;72.60;101800.31;5034607;28;20209;-80
2023/02/16 09:32:50;;;;;;;19.40;17.10;;;;;;;6.19;71.80;101810.59;5033881;28;20687;-80
2023/02/16 09:35:17;;;;;;;22.60;19.10;;;;;;;6.19;72.26;101837.38;5034454;28;20246;-81
2023/02/16 09:37:43;;;;;;;21.57;17.93;;;;;;;6.26;72.59;101857.41;5033547;28;20210;-81
2023/02/16 09:40:13;;;;;;;20.00;17.80;;;;;;;6.29;71.88;101843.66;5037813;28;20206;-81
2023/02/16 09:42:51;;;;;;;21.60;18.10;;;;;;;6.34;73.34;101853.28;5037048;28;20209;-81
2023/02/16 09:45:20;;;;;;;21.23;17.73;;;;;;;6.44;73.92;101828.41;5037661;28;20611;-82
2023/02/16 09:47:51;;;;;;;20.70;18.40;;;;;;;6.53;74.20;101814.75;5037905;28;20213;-83
2023/02/16 09:50:20;;;;;;;20.97;18.77;;;;;;;6.51;73.11;101816.44;5037956;28;20204;-81
2023/02/16 09:52:53;;;;;;;22.37;17.50;;;;;;;6.66;74.91;101801.19;5037197;28;20213;-81
2023/02/16 09:55:21;;;;;;;25.03;18.77;;;;;;;6.73;74.58;101781.41;5037533;28;20322;-81
2023/02/16 09:58:07;;;;;;;22.77;19.10;;;;;;;6.81;74.74;101753.00;5037530;28;20210;-82
2023/02/16 10:00:44;;;;;;;22.17;18.60;;;;;;;6.85;73.51;101776.41;5037004;28;20280;-80
2023/02/16 10:03:27;;;;;;;21.07;18.47;;;;;;;6.84;70.85;101813.63;5036827;28;20212;-81
2023/02/16 10:06:04;;;;;;;20.00;17.90;;;;;;;6.94;72.76;101856.19;5036082;28;20237;-81
2023/02/16 10:08:36;;;;;;;20.60;17.13;;;;;;;6.86;69.38;101875.94;5036398;28;20213;-82
2023/02/16 10:11:36;;;;;;;21.47;18.53;;;;;;;6.97;70.49;101927.19;5036148;28;20225;-81
2023/02/16 10:14:01;;;;;;;21.00;18.30;;;;;;;6.89;70.16;101933.97;5035170;28;20680;-80
2023/02/16 10:16:31;;;;;;;19.70;17.73;;;;;;;7.08;70.63;101931.75;5036971;28;20244;-80
2023/02/16 10:19:02;;;;;;;20.83;18.50;;;;;;;6.96;68.38;101919.41;5036477;28;20206;-81
2023/02/16 10:21:30;;;;;;;19.80;17.80;;;;;;;7.00;69.17;101939.38;5035596;28;20295;-80
2023/02/16 10:24:00;;;;;;;22.67;19.07;;;;;;;6.83;69.02;101969.31;5036290;28;20206;-80
2023/02/16 10:26:32;;;;;;;21.57;18.67;;;;;;;7.00;69.98;101959.25;5036302;28;20233;-80
2023/02/16 10:29:05;;;;;;;20.00;17.90;;;;;;;6.94;68.99;101955.72;5035929;28;20566;-81
2023/02/16 10:31:38;;;;;;;22.27;18.63;;;;;;;7.00;70.53;101949.78;5035722;28;20632;-81
2023/02/16 10:34:19;;;;;;;21.50;19.03;;;;;;;7.13;70.48;101930.09;5035278;28;20232;-81
2023/02/16 10:37:04;;;;;;;21.77;19.40;;;;;;;7.08;69.90;101914.44;5035854;28;20251;-80
2023/02/16 10:39:38;;;;;;;19.93;17.77;;;;;;;7.14;69.30;101927.53;5035669;28;20238;-80
2023/02/16 10:42:15;;;;;;;21.40;18.60;;;;;;;7.02;68.67;101929.91;5035077;28;20232;-81
2023/02/16 10:44:47;;;;;;;20.30;18.20;;;;;;;6.99;69.40;101923.78;5035507;28;20206;-81
2023/02/16 10:47:22;;;;;;;20.13;17.97;;;;;;;7.12;70.02;101907.59;5034791;28;20210;-80
2023/02/16 10:49:50;;;;;;;20.60;18.47;;;;;;;7.08;69.24;101885.88;5034580;28;20221;-80
2023/02/16 10:52:17;;;;;;;20.33;18.33;;;;;;;7.16;70.10;101892.09;5034670;28;20222;-81
2023/02/16 10:54:44;;;;;;;19.57;17.47;;;;;;;7.28;70.19;101880.19;5034536;28;20732;-81
2023/02/16 10:57:25;;;;;;;20.40;18.30;;;;;;;7.37;69.62;101895.91;5032075;28;20210;-80
2023/02/16 10:59:52;;;;;;;20.27;17.30;;;;;;;7.46;68.98;101879.63;5018921;28;20209;-78
2023/02/16 11:02:24;;;;;;;21.33;17.63;;;;;;;7.55;69.89;101901.44;5013925;28;20230;-80
2023/02/16 11:04:54;;;;;;;20.77;17.30;;;;;;;7.48;66.61;101909.97;5014685;28;20313;-80
2023/02/16 11:07:22;;;;;;;20.03;18.00;;;;;;;7.49;67.75;101947.22;5023298;28;20224;-79
2023/02/16 11:09:51;;;;;;;19.63;17.37;;;;;;;7.26;66.83;101958.06;5014098;28;20238;-78
2023/02/16 11:12:26;;;;;;;19.67;17.50;;;;;;;7.27;67.83;101948.53;5013835;28;20285;-80
2023/02/16 11:14:55;;;;;;;19.53;17.50;;;;;;;7.25;68.08;101963.22;5013611;28;20242;-80
2023/02/16 11:17:23;;;;;;;18.70;16.77;;;;;;;7.09;68.98;101962.03;5022659;28;20263;-79
2023/02/16 11:19:53;;;;;;;19.07;17.10;;;;;;;7.14;69.13;101945.72;5014251;28;20219;-80
2023/02/16 11:22:30;;;;;;;19.27;17.37;;;;;;;7.18;69.12;101932.81;5014442;28;20237;-80
2023/02/16 11:24:58;;;;;;;20.43;18.33;;;;;;;7.06;70.10;101941.22;5025216;28;20617;-78
2023/02/16 11:27:25;;;;;;;22.87;20.50;;;;;;;7.16;70.47;101912.00;5024258;28;20213;-81
2023/02/16 11:30:21;;;;;;;19.93;17.87;;;;;;;7.18;70.24;101876.53;5014636;28;20210;-80
2023/02/16 11:32:47;;;;;;;18.57;16.40;;;;;;;7.10;69.72;101888.53;5014204;28;20206;-81
2023/02/16 11:35:16;;;;;;;18.83;16.80;;;;;;;7.12;69.49;101871.25;5014003;28;20736;-80
2023/02/16 11:37:43;;;;;;;18.20;16.50;;;;;;;7.12;69.52;101861.72;5031313;28;20211;-80
2023/02/16 11:40:20;;;;;;;18.57;16.77;;;;;;;7.25;71.14;101872.31;5014474;28;20234;-81
2023/02/16 11:42:48;;;;;;;19.57;17.50;;;;;;;7.30;69.76;101852.50;5013511;28;20230;-80
2023/02/16 11:45:24;;;;;;;24.57;20.17;;;;;;;7.46;70.51;101854.50;5014849;28;20238;-81
2023/02/16 11:47:54;;;;;;;23.77;19.10;;;;;;;7.56;68.74;101834.75;5022454;28;20238;-79
2023/02/16 11:50:25;;;;;;;20.77;18.57;;;;;;;7.40;68.34;101888.19;5022371;28;20210;-80
2023/02/16 11:52:54;;;;;;;19.07;17.17;;;;;;;7.43;69.22;101887.34;5021382;28;20213;-80
2023/02/16 11:55:25;;;;;;;19.07;17.17;;;;;;;7.49;68.62;101897.84;5033166;28;20302;-81
2023/02/16 11:57:52;;;;;;;17.63;15.93;;;;;;;7.54;68.67;101891.88;5034381;28;20647;-81
2023/02/16 12:00:21;;;;;;;19.63;17.47;;;;;;;7.69;68.25;101905.97;5034161;28;20498;-79
2023/02/16 12:03:38;;;;;;;18.83;17.00;;;;;;;7.74;67.79;101906.94;5033683;28;20313;-80
2023/02/16 12:06:21;;;;;;;19.30;17.23;;;;;;;7.68;68.08;101935.44;4991775;28;20325;-81